De Witt, New York
Current Conditions -  °F | °C
As of 2:54 AM on Saturday 25 Oct 2014 (Local Time) from KSYR Reporting Station
Scattered Clouds Scattered Clouds  
Wind Chill: 43°   Ceiling: Unl
Heat Index: 47°   Visibility: 9mi
Dew Point: 42°   Wind: 8mph
Humidity: 83%   Direction: 250°WSW
Pressure: 29.89"   Gusts: NA
Location:  43.0412°N, 76.074°W
Report Text: KSYR 250654Z 25007KT 9SM SCT060 SCT250 08/06 A2989 RMK AO2 SLP118 T00830056
Loading
Personal Weather Stations






























Interactive Weather Map
Tropical Storm Tracking
New forecast layout! Learn more

10-Day Weather Forecast

Advertisements
Track Severe Weather on mobile